sensor_id;sensor_type;location;lat;lon;timestamp;temperature;humidity
20380;DHT22;10349;48.666;8.948;2023-06-04T00:00:47;14.10;99.90
20380;DHT22;10349;48.666;8.948;2023-06-04T00:03:13;14.00;99.90
20380;DHT22;10349;48.666;8.948;2023-06-04T00:05:38;13.90;99.90
20380;DHT22;10349;48.666;8.948;2023-06-04T00:08:04;13.70;99.90
20380;DHT22;10349;48.666;8.948;2023-06-04T00:10:30;13.60;99.90
20380;DHT22;10349;48.666;8.948;2023-06-04T00:12:56;13.40;99.90
20380;DHT22;10349;48.666;8.948;2023-06-04T00:15:22;13.20;99.90
20380;DHT22;10349;48.666;8.948;2023-06-04T00:17:48;13.10;99.90
20380;DHT22;10349;48.666;8.948;2023-06-04T00:20:14;13.00;99.90
20380;DHT22;10349;48.666;8.948;2023-06-04T00:22:41;13.00;99.90
20380;DHT22;10349;48.666;8.948;2023-06-04T00:25:08;13.10;99.90
20380;DHT22;10349;48.666;8.948;2023-06-04T00:27:34;13.20;99.90
20380;DHT22;10349;48.666;8.948;2023-06-04T00:30:00;13.20;99.90
20380;DHT22;10349;48.666;8.948;2023-06-04T00:32:26;13.20;99.90
20380;DHT22;10349;48.666;8.948;2023-06-04T00:34:53;13.30;99.90
20380;DHT22;10349;48.666;8.948;2023-06-04T00:37:19;13.20;99.90
20380;DHT22;10349;48.666;8.948;2023-06-04T00:39:45;13.10;99.90
20380;DHT22;10349;48.666;8.948;2023-06-04T00:42:11;13.00;99.90
20380;DHT22;10349;48.666;8.948;2023-06-04T00:44:36;12.90;99.90
20380;DHT22;10349;48.666;8.948;2023-06-04T00:47:02;12.90;99.90
20380;DHT22;10349;48.666;8.948;2023-06-04T00:49:28;12.90;99.90
20380;DHT22;10349;48.666;8.948;2023-06-04T00:51:54;12.90;99.90
20380;DHT22;10349;48.666;8.948;2023-06-04T00:54:20;12.90;99.90
20380;DHT22;10349;48.666;8.948;2023-06-04T00:56:47;12.90;99.90
20380;DHT22;10349;48.666;8.948;2023-06-04T00:59:13;12.90;99.90
20380;DHT22;10349;48.666;8.948;2023-06-04T01:01:54;12.90;99.90
20380;DHT22;10349;48.666;8.948;2023-06-04T01:07:07;12.90;99.90
20380;DHT22;10349;48.666;8.948;2023-06-04T01:09:35;12.90;99.90
20380;DHT22;10349;48.666;8.948;2023-06-04T01:12:05;12.90;99.90
20380;DHT22;10349;48.666;8.948;2023-06-04T01:14:31;12.80;99.90
20380;DHT22;10349;48.666;8.948;2023-06-04T01:17:07;12.70;99.90
20380;DHT22;10349;48.666;8.948;2023-06-04T01:20:02;12.70;99.90
20380;DHT22;10349;48.666;8.948;2023-06-04T01:22:35;12.70;99.90
20380;DHT22;10349;48.666;8.948;2023-06-04T01:25:13;12.70;99.90
20380;DHT22;10349;48.666;8.948;2023-06-04T01:27:48;12.60;99.90
20380;DHT22;10349;48.666;8.948;2023-06-04T01:30:15;12.40;99.90
20380;DHT22;10349;48.666;8.948;2023-06-04T01:32:41;12.20;99.90
20380;DHT22;10349;48.666;8.948;2023-06-04T01:35:09;12.10;99.90
20380;DHT22;10349;48.666;8.948;2023-06-04T01:37:36;12.00;99.90
20380;DHT22;10349;48.666;8.948;2023-06-04T01:40:02;11.90;99.90
20380;DHT22;10349;48.666;8.948;2023-06-04T01:42:28;11.70;99.90
20380;DHT22;10349;48.666;8.948;2023-06-04T01:44:54;11.70;99.90
20380;DHT22;10349;48.666;8.948;2023-06-04T01:47:21;11.70;99.90
20380;DHT22;10349;48.666;8.948;2023-06-04T01:49:47;11.80;99.90
20380;DHT22;10349;48.666;8.948;2023-06-04T01:52:13;11.70;99.90
20380;DHT22;10349;48.666;8.948;2023-06-04T01:54:38;11.70;99.90
20380;DHT22;10349;48.666;8.948;2023-06-04T01:57:04;11.60;99.90
20380;DHT22;10349;48.666;8.948;2023-06-04T01:59:31;11.70;99.90
20380;DHT22;10349;48.666;8.948;2023-06-04T02:01:58;11.80;99.90
20380;DHT22;10349;48.666;8.948;2023-06-04T02:04:24;11.70;99.90
20380;DHT22;10349;48.666;8.948;2023-06-04T02:06:50;11.70;99.90
20380;DHT22;10349;48.666;8.948;2023-06-04T02:09:16;11.80;99.90
20380;DHT22;10349;48.666;8.948;2023-06-04T02:11:42;11.80;99.90
20380;DHT22;10349;48.666;8.948;2023-06-04T02:14:08;11.60;99.90
20380;DHT22;10349;48.666;8.948;2023-06-04T02:16:33;11.50;99.90
20380;DHT22;10349;48.666;8.948;2023-06-04T02:18:59;11.40;99.90
20380;DHT22;10349;48.666;8.948;2023-06-04T02:21:25;11.30;99.90
20380;DHT22;10349;48.666;8.948;2023-06-04T02:23:50;11.30;99.90
20380;DHT22;10349;48.666;8.948;2023-06-04T02:26:16;11.40;99.90
20380;DHT22;10349;48.666;8.948;2023-06-04T02:28:42;11.40;99.90
20380;DHT22;10349;48.666;8.948;2023-06-04T02:31:07;11.50;99.90
20380;DHT22;10349;48.666;8.948;2023-06-04T02:33:33;11.50;99.90
20380;DHT22;10349;48.666;8.948;2023-06-04T02:35:58;11.50;99.90
20380;DHT22;10349;48.666;8.948;2023-06-04T02:38:24;11.50;99.90
20380;DHT22;10349;48.666;8.948;2023-06-04T02:40:51;11.30;99.90
20380;DHT22;10349;48.666;8.948;2023-06-04T02:43:17;11.20;99.90
20380;DHT22;10349;48.666;8.948;2023-06-04T02:45:42;11.10;99.90
20380;DHT22;10349;48.666;8.948;2023-06-04T02:48:08;10.90;99.90
20380;DHT22;10349;48.666;8.948;2023-06-04T02:50:34;10.70;99.90
20380;DHT22;10349;48.666;8.948;2023-06-04T02:52:59;10.60;99.90
20380;DHT22;10349;48.666;8.948;2023-06-04T02:55:25;10.70;99.90
20380;DHT22;10349;48.666;8.948;2023-06-04T02:57:51;10.70;99.90
20380;DHT22;10349;48.666;8.948;2023-06-04T03:00:17;10.70;99.90
20380;DHT22;10349;48.666;8.948;2023-06-04T03:02:45;10.70;99.90
20380;DHT22;10349;48.666;8.948;2023-06-04T03:05:13;10.60;99.90
20380;DHT22;10349;48.666;8.948;2023-06-04T03:07:40;10.60;99.90
20380;DHT22;10349;48.666;8.948;2023-06-04T03:10:08;10.60;99.90
20380;DHT22;10349;48.666;8.948;2023-06-04T03:12:34;10.60;99.90
20380;DHT22;10349;48.666;8.948;2023-06-04T03:15:00;10.60;99.90
20380;DHT22;10349;48.666;8.948;2023-06-04T03:17:26;10.70;99.90
20380;DHT22;10349;48.666;8.948;2023-06-04T03:19:52;10.80;99.90
20380;DHT22;10349;48.666;8.948;2023-06-04T03:22:18;10.80;99.90
20380;DHT22;10349;48.666;8.948;2023-06-04T03:24:44;10.80;99.90
20380;DHT22;10349;48.666;8.948;2023-06-04T03:27:10;10.90;99.90
20380;DHT22;10349;48.666;8.948;2023-06-04T03:29:39;10.90;99.90
20380;DHT22;10349;48.666;8.948;2023-06-04T03:32:07;10.90;99.90
20380;DHT22;10349;48.666;8.948;2023-06-04T03:34:32;10.90;99.90
20380;DHT22;10349;48.666;8.948;2023-06-04T03:36:59;10.90;99.90
20380;DHT22;10349;48.666;8.948;2023-06-04T03:39:25;10.80;99.90
20380;DHT22;10349;48.666;8.948;2023-06-04T03:41:51;10.70;99.90
20380;DHT22;10349;48.666;8.948;2023-06-04T03:44:19;10.70;99.90
20380;DHT22;10349;48.666;8.948;2023-06-04T03:46:45;10.70;99.90
20380;DHT22;10349;48.666;8.948;2023-06-04T03:49:13;10.70;99.90
20380;DHT22;10349;48.666;8.948;2023-06-04T03:51:40;10.60;99.90
20380;DHT22;10349;48.666;8.948;2023-06-04T03:54:07;10.40;99.90
20380;DHT22;10349;48.666;8.948;2023-06-04T03:56:33;10.30;99.90
20380;DHT22;10349;48.666;8.948;2023-06-04T03:58:59;10.20;99.90
20380;DHT22;10349;48.666;8.948;2023-06-04T04:01:25;10.20;99.90
20380;DHT22;10349;48.666;8.948;2023-06-04T04:03:52;10.20;99.90
20380;DHT22;10349;48.666;8.948;2023-06-04T04:06:18;10.20;99.90
20380;DHT22;10349;48.666;8.948;2023-06-04T04:08:44;10.20;99.90
20380;DHT22;10349;48.666;8.948;2023-06-04T04:11:14;10.30;99.90
20380;DHT22;10349;48.666;8.948;2023-06-04T04:13:40;10.40;99.90
20380;DHT22;10349;48.666;8.948;2023-06-04T04:16:06;10.50;99.90
20380;DHT22;10349;48.666;8.948;2023-06-04T04:18:36;10.60;99.90
20380;DHT22;10349;48.666;8.948;2023-06-04T04:21:03;10.70;99.90
20380;DHT22;10349;48.666;8.948;2023-06-04T04:23:29;10.70;99.90
20380;DHT22;10349;48.666;8.948;2023-06-04T04:25:56;10.70;99.90
20380;DHT22;10349;48.666;8.948;2023-06-04T04:28:25;10.80;99.90
20380;DHT22;10349;48.666;8.948;2023-06-04T04:30:57;11.00;99.90
20380;DHT22;10349;48.666;8.948;2023-06-04T04:33:23;11.20;99.90
20380;DHT22;10349;48.666;8.948;2023-06-04T04:35:52;11.40;99.90
20380;DHT22;10349;48.666;8.948;2023-06-04T04:38:20;11.70;99.90
20380;DHT22;10349;48.666;8.948;2023-06-04T04:40:53;11.90;99.90
20380;DHT22;10349;48.666;8.948;2023-06-04T04:43:35;11.90;99.90
20380;DHT22;10349;48.666;8.948;2023-06-04T04:46:08;11.70;99.90
20380;DHT22;10349;48.666;8.948;2023-06-04T04:48:34;11.70;99.90
20380;DHT22;10349;48.666;8.948;2023-06-04T04:51:00;11.80;99.90
20380;DHT22;10349;48.666;8.948;2023-06-04T04:53:27;12.20;99.90
20380;DHT22;10349;48.666;8.948;2023-06-04T04:55:53;12.70;99.90
20380;DHT22;10349;48.666;8.948;2023-06-04T04:58:19;13.20;99.90
20380;DHT22;10349;48.666;8.948;2023-06-04T05:00:44;13.70;99.90
20380;DHT22;10349;48.666;8.948;2023-06-04T05:03:13;14.30;99.90
20380;DHT22;10349;48.666;8.948;2023-06-04T05:05:39;15.10;99.90
20380;DHT22;10349;48.666;8.948;2023-06-04T05:08:05;15.70;99.90
20380;DHT22;10349;48.666;8.948;2023-06-04T05:10:36;16.30;99.90
20380;DHT22;10349;48.666;8.948;2023-06-04T05:13:02;16.80;99.90
20380;DHT22;10349;48.666;8.948;2023-06-04T05:15:38;17.00;99.90
20380;DHT22;10349;48.666;8.948;2023-06-04T05:18:06;17.20;99.90
20380;DHT22;10349;48.666;8.948;2023-06-04T05:20:35;17.20;99.90
20380;DHT22;10349;48.666;8.948;2023-06-04T05:23:04;17.40;99.90
20380;DHT22;10349;48.666;8.948;2023-06-04T05:25:30;17.50;99.90
20380;DHT22;10349;48.666;8.948;2023-06-04T05:27:57;17.70;99.90
20380;DHT22;10349;48.666;8.948;2023-06-04T05:30:22;17.80;99.90
20380;DHT22;10349;48.666;8.948;2023-06-04T05:32:49;17.50;99.90
20380;DHT22;10349;48.666;8.948;2023-06-04T05:35:18;17.10;99.90
20380;DHT22;10349;48.666;8.948;2023-06-04T05:37:45;17.00;99.90
20380;DHT22;10349;48.666;8.948;2023-06-04T05:40:13;17.10;99.90
20380;DHT22;10349;48.666;8.948;2023-06-04T05:42:41;17.20;99.90
20380;DHT22;10349;48.666;8.948;2023-06-04T05:45:07;17.30;99.90
20380;DHT22;10349;48.666;8.948;2023-06-04T05:47:34;17.50;99.90
20380;DHT22;10349;48.666;8.948;2023-06-04T05:50:00;17.80;99.90
20380;DHT22;10349;48.666;8.948;2023-06-04T05:52:26;17.90;99.90
20380;DHT22;10349;48.666;8.948;2023-06-04T05:54:51;18.10;99.90
20380;DHT22;10349;48.666;8.948;2023-06-04T05:57:17;18.30;99.90
20380;DHT22;10349;48.666;8.948;2023-06-04T05:59:43;18.40;99.90
20380;DHT22;10349;48.666;8.948;2023-06-04T06:02:14;18.50;99.90
20380;DHT22;10349;48.666;8.948;2023-06-04T06:04:40;18.60;99.90
20380;DHT22;10349;48.666;8.948;2023-06-04T06:07:06;18.50;99.90
20380;DHT22;10349;48.666;8.948;2023-06-04T06:09:32;18.40;99.90
20380;DHT22;10349;48.666;8.948;2023-06-04T06:11:58;18.40;99.90
20380;DHT22;10349;48.666;8.948;2023-06-04T06:14:23;18.60;99.90
20380;DHT22;10349;48.666;8.948;2023-06-04T06:16:50;18.40;99.90
20380;DHT22;10349;48.666;8.948;2023-06-04T06:19:16;18.40;99.90
20380;DHT22;10349;48.666;8.948;2023-06-04T06:21:42;18.20;99.90
20380;DHT22;10349;48.666;8.948;2023-06-04T06:24:08;18.10;99.90
20380;DHT22;10349;48.666;8.948;2023-06-04T06:26:34;18.10;99.90
20380;DHT22;10349;48.666;8.948;2023-06-04T06:29:01;18.20;99.90
20380;DHT22;10349;48.666;8.948;2023-06-04T06:31:28;18.10;99.90
20380;DHT22;10349;48.666;8.948;2023-06-04T06:33:54;18.20;99.90
20380;DHT22;10349;48.666;8.948;2023-06-04T06:36:19;18.20;99.90
20380;DHT22;10349;48.666;8.948;2023-06-04T06:38:45;18.20;99.90
20380;DHT22;10349;48.666;8.948;2023-06-04T06:41:11;18.20;99.90
20380;DHT22;10349;48.666;8.948;2023-06-04T06:43:38;18.20;99.90
20380;DHT22;10349;48.666;8.948;2023-06-04T06:46:03;18.20;99.90
20380;DHT22;10349;48.666;8.948;2023-06-04T06:48:29;18.20;99.90
20380;DHT22;10349;48.666;8.948;2023-06-04T06:50:55;18.40;99.90
20380;DHT22;10349;48.666;8.948;2023-06-04T06:53:21;18.20;99.90
20380;DHT22;10349;48.666;8.948;2023-06-04T06:55:47;18.00;99.90
20380;DHT22;10349;48.666;8.948;2023-06-04T06:58:13;18.00;99.90
20380;DHT22;10349;48.666;8.948;2023-06-04T07:00:38;18.20;99.90
20380;DHT22;10349;48.666;8.948;2023-06-04T07:03:05;18.30;99.90
20380;DHT22;10349;48.666;8.948;2023-06-04T07:05:31;18.40;99.90
20380;DHT22;10349;48.666;8.948;2023-06-04T07:07:57;18.40;99.90
20380;DHT22;10349;48.666;8.948;2023-06-04T07:10:24;18.40;99.90
20380;DHT22;10349;48.666;8.948;2023-06-04T07:12:50;18.30;99.90
20380;DHT22;10349;48.666;8.948;2023-06-04T07:15:15;18.20;99.90
20380;DHT22;10349;48.666;8.948;2023-06-04T07:17:41;18.20;99.90
20380;DHT22;10349;48.666;8.948;2023-06-04T07:20:07;18.30;99.90
20380;DHT22;10349;48.666;8.948;2023-06-04T07:22:35;18.40;99.90
20380;DHT22;10349;48.666;8.948;2023-06-04T07:25:01;18.50;99.90
20380;DHT22;10349;48.666;8.948;2023-06-04T07:27:27;18.70;99.90
20380;DHT22;10349;48.666;8.948;2023-06-04T07:29:52;18.80;99.90
20380;DHT22;10349;48.666;8.948;2023-06-04T07:32:18;18.80;99.90
20380;DHT22;10349;48.666;8.948;2023-06-04T07:34:44;18.80;99.90
20380;DHT22;10349;48.666;8.948;2023-06-04T07:37:10;18.80;99.90
20380;DHT22;10349;48.666;8.948;2023-06-04T07:39:38;18.90;99.90
20380;DHT22;10349;48.666;8.948;2023-06-04T07:42:04;19.00;99.90
20380;DHT22;10349;48.666;8.948;2023-06-04T07:44:32;19.00;99.90
20380;DHT22;10349;48.666;8.948;2023-06-04T07:46:58;19.10;99.90
20380;DHT22;10349;48.666;8.948;2023-06-04T07:49:23;19.30;99.90
20380;DHT22;10349;48.666;8.948;2023-06-04T07:51:49;19.50;99.90
20380;DHT22;10349;48.666;8.948;2023-06-04T07:54:15;19.60;99.90
20380;DHT22;10349;48.666;8.948;2023-06-04T07:56:42;19.70;99.90
20380;DHT22;10349;48.666;8.948;2023-06-04T07:59:07;19.90;99.90
20380;DHT22;10349;48.666;8.948;2023-06-04T08:01:33;19.80;99.90
20380;DHT22;10349;48.666;8.948;2023-06-04T08:03:59;19.80;99.90
20380;DHT22;10349;48.666;8.948;2023-06-04T08:06:25;19.90;99.90
20380;DHT22;10349;48.666;8.948;2023-06-04T08:08:52;19.90;99.90
20380;DHT22;10349;48.666;8.948;2023-06-04T08:11:19;19.80;99.90
20380;DHT22;10349;48.666;8.948;2023-06-04T08:13:46;19.90;99.90
20380;DHT22;10349;48.666;8.948;2023-06-04T08:16:12;20.00;99.90
20380;DHT22;10349;48.666;8.948;2023-06-04T08:18:38;20.10;99.90
20380;DHT22;10349;48.666;8.948;2023-06-04T08:21:04;20.00;99.90
20380;DHT22;10349;48.666;8.948;2023-06-04T08:23:31;20.00;99.90
20380;DHT22;10349;48.666;8.948;2023-06-04T08:25:57;20.10;99.90
20380;DHT22;10349;48.666;8.948;2023-06-04T08:28:24;20.10;99.90
20380;DHT22;10349;48.666;8.948;2023-06-04T08:30:50;20.10;99.90
20380;DHT22;10349;48.666;8.948;2023-06-04T08:33:17;20.30;99.90
20380;DHT22;10349;48.666;8.948;2023-06-04T08:35:42;20.50;99.90
20380;DHT22;10349;48.666;8.948;2023-06-04T08:38:08;20.70;99.90
20380;DHT22;10349;48.666;8.948;2023-06-04T08:40:34;20.90;99.90
20380;DHT22;10349;48.666;8.948;2023-06-04T08:43:00;21.00;99.90
20380;DHT22;10349;48.666;8.948;2023-06-04T08:45:26;21.10;99.90
20380;DHT22;10349;48.666;8.948;2023-06-04T08:47:53;21.30;99.90
20380;DHT22;10349;48.666;8.948;2023-06-04T08:50:24;21.50;99.90
20380;DHT22;10349;48.666;8.948;2023-06-04T08:52:53;21.80;99.90
20380;DHT22;10349;48.666;8.948;2023-06-04T08:55:20;21.90;99.90
20380;DHT22;10349;48.666;8.948;2023-06-04T08:57:47;21.90;99.90
20380;DHT22;10349;48.666;8.948;2023-06-04T09:00:15;22.00;99.90
20380;DHT22;10349;48.666;8.948;2023-06-04T09:02:42;22.20;99.90
20380;DHT22;10349;48.666;8.948;2023-06-04T09:05:08;22.20;99.90
20380;DHT22;10349;48.666;8.948;2023-06-04T09:07:39;22.30;99.90
20380;DHT22;10349;48.666;8.948;2023-06-04T09:10:09;22.20;99.90
20380;DHT22;10349;48.666;8.948;2023-06-04T09:12:43;22.10;99.90
20380;DHT22;10349;48.666;8.948;2023-06-04T09:15:10;21.90;99.90
20380;DHT22;10349;48.666;8.948;2023-06-04T09:17:36;21.90;99.90
20380;DHT22;10349;48.666;8.948;2023-06-04T09:20:02;22.00;99.90
20380;DHT22;10349;48.666;8.948;2023-06-04T09:22:32;22.10;99.90
20380;DHT22;10349;48.666;8.948;2023-06-04T09:24:59;22.10;99.90
20380;DHT22;10349;48.666;8.948;2023-06-04T09:27:25;22.00;99.90
20380;DHT22;10349;48.666;8.948;2023-06-04T09:29:54;22.20;99.90
20380;DHT22;10349;48.666;8.948;2023-06-04T09:32:30;22.20;99.90
20380;DHT22;10349;48.666;8.948;2023-06-04T09:35:14;22.30;99.90
20380;DHT22;10349;48.666;8.948;2023-06-04T09:37:41;22.30;99.90
20380;DHT22;10349;48.666;8.948;2023-06-04T09:40:08;22.60;99.90
20380;DHT22;10349;48.666;8.948;2023-06-04T09:42:44;22.90;99.90
20380;DHT22;10349;48.666;8.948;2023-06-04T09:45:10;23.10;99.90
20380;DHT22;10349;48.666;8.948;2023-06-04T09:47:43;22.90;99.90
20380;DHT22;10349;48.666;8.948;2023-06-04T09:50:11;22.90;99.90
20380;DHT22;10349;48.666;8.948;2023-06-04T09:52:37;23.00;99.90
20380;DHT22;10349;48.666;8.948;2023-06-04T09:55:18;23.20;99.90
20380;DHT22;10349;48.666;8.948;2023-06-04T09:57:48;23.20;99.90
20380;DHT22;10349;48.666;8.948;2023-06-04T10:00:20;23.10;99.90
20380;DHT22;10349;48.666;8.948;2023-06-04T10:02:56;23.10;99.90
20380;DHT22;10349;48.666;8.948;2023-06-04T10:05:24;23.10;99.90
20380;DHT22;10349;48.666;8.948;2023-06-04T10:07:51;23.20;99.90
20380;DHT22;10349;48.666;8.948;2023-06-04T10:10:25;23.40;99.90
20380;DHT22;10349;48.666;8.948;2023-06-04T10:12:56;23.60;99.90
20380;DHT22;10349;48.666;8.948;2023-06-04T10:15:26;23.50;99.90
20380;DHT22;10349;48.666;8.948;2023-06-04T10:17:54;23.20;99.90
20380;DHT22;10349;48.666;8.948;2023-06-04T10:20:21;23.10;99.90
20380;DHT22;10349;48.666;8.948;2023-06-04T10:22:48;23.20;99.90
20380;DHT22;10349;48.666;8.948;2023-06-04T10:25:14;23.40;99.90
20380;DHT22;10349;48.666;8.948;2023-06-04T10:27:41;23.40;99.90
20380;DHT22;10349;48.666;8.948;2023-06-04T10:30:07;23.10;99.90
20380;DHT22;10349;48.666;8.948;2023-06-04T10:32:34;23.10;99.90
20380;DHT22;10349;48.666;8.948;2023-06-04T10:35:06;23.40;99.90
20380;DHT22;10349;48.666;8.948;2023-06-04T10:37:33;23.30;99.90
20380;DHT22;10349;48.666;8.948;2023-06-04T10:39:59;23.50;99.90
20380;DHT22;10349;48.666;8.948;2023-06-04T10:42:25;23.90;99.90
20380;DHT22;10349;48.666;8.948;2023-06-04T10:44:52;24.20;99.90
20380;DHT22;10349;48.666;8.948;2023-06-04T10:47:23;24.20;99.90
20380;DHT22;10349;48.666;8.948;2023-06-04T10:49:50;24.30;99.90
20380;DHT22;10349;48.666;8.948;2023-06-04T10:52:16;24.30;99.90
20380;DHT22;10349;48.666;8.948;2023-06-04T10:54:42;24.50;99.90
20380;DHT22;10349;48.666;8.948;2023-06-04T10:57:16;24.50;99.90
20380;DHT22;10349;48.666;8.948;2023-06-04T11:00:02;24.30;99.90
20380;DHT22;10349;48.666;8.948;2023-06-04T11:02:31;24.20;99.90
20380;DHT22;10349;48.666;8.948;2023-06-04T11:05:05;23.90;99.90
20380;DHT22;10349;48.666;8.948;2023-06-04T11:07:49;23.80;99.90
20380;DHT22;10349;48.666;8.948;2023-06-04T11:10:16;23.90;99.90
20380;DHT22;10349;48.666;8.948;2023-06-04T11:12:43;24.10;99.90
20380;DHT22;10349;48.666;8.948;2023-06-04T11:15:10;24.00;99.90
20380;DHT22;10349;48.666;8.948;2023-06-04T11:17:36;23.90;99.90
20380;DHT22;10349;48.666;8.948;2023-06-04T11:20:02;23.70;99.90
20380;DHT22;10349;48.666;8.948;2023-06-04T11:22:30;23.80;99.90
20380;DHT22;10349;48.666;8.948;2023-06-04T11:24:57;23.80;99.90
20380;DHT22;10349;48.666;8.948;2023-06-04T11:27:24;24.00;99.90
20380;DHT22;10349;48.666;8.948;2023-06-04T11:29:51;24.00;99.90
20380;DHT22;10349;48.666;8.948;2023-06-04T11:32:23;24.10;99.90
20380;DHT22;10349;48.666;8.948;2023-06-04T11:34:50;24.10;99.90
20380;DHT22;10349;48.666;8.948;2023-06-04T11:37:15;23.80;99.90
20380;DHT22;10349;48.666;8.948;2023-06-04T11:39:41;23.70;99.90
20380;DHT22;10349;48.666;8.948;2023-06-04T11:42:10;23.80;99.90
20380;DHT22;10349;48.666;8.948;2023-06-04T11:44:36;24.10;99.90
20380;DHT22;10349;48.666;8.948;2023-06-04T11:47:08;24.10;99.90
20380;DHT22;10349;48.666;8.948;2023-06-04T11:49:34;24.00;99.90
20380;DHT22;10349;48.666;8.948;2023-06-04T11:52:01;24.10;99.90
20380;DHT22;10349;48.666;8.948;2023-06-04T11:54:27;24.20;99.90
20380;DHT22;10349;48.666;8.948;2023-06-04T11:56:53;24.30;99.90
20380;DHT22;10349;48.666;8.948;2023-06-04T11:59:19;24.60;99.90
20380;DHT22;10349;48.666;8.948;2023-06-04T12:01:46;24.80;99.90
20380;DHT22;10349;48.666;8.948;2023-06-04T12:04:14;24.40;99.90
20380;DHT22;10349;48.666;8.948;2023-06-04T12:07:01;24.20;99.90
20380;DHT22;10349;48.666;8.948;2023-06-04T12:09:29;23.80;99.90
20380;DHT22;10349;48.666;8.948;2023-06-04T12:12:04;23.70;99.90
20380;DHT22;10349;48.666;8.948;2023-06-04T12:14:31;23.80;99.90
20380;DHT22;10349;48.666;8.948;2023-06-04T12:17:01;24.10;99.90
20380;DHT22;10349;48.666;8.948;2023-06-04T12:19:28;24.30;99.90
20380;DHT22;10349;48.666;8.948;2023-06-04T12:22:01;24.60;99.90
20380;DHT22;10349;48.666;8.948;2023-06-04T12:24:27;24.80;99.90
20380;DHT22;10349;48.666;8.948;2023-06-04T12:27:05;24.80;99.90
20380;DHT22;10349;48.666;8.948;2023-06-04T12:29:31;24.30;99.90
20380;DHT22;10349;48.666;8.948;2023-06-04T12:32:05;24.30;99.90
20380;DHT22;10349;48.666;8.948;2023-06-04T12:34:34;24.30;99.90
20380;DHT22;10349;48.666;8.948;2023-06-04T12:37:00;24.30;99.90
20380;DHT22;10349;48.666;8.948;2023-06-04T12:39:26;24.10;99.90
20380;DHT22;10349;48.666;8.948;2023-06-04T12:41:51;24.20;99.90
20380;DHT22;10349;48.666;8.948;2023-06-04T12:44:17;24.30;99.90
20380;DHT22;10349;48.666;8.948;2023-06-04T12:46:43;24.30;99.90
20380;DHT22;10349;48.666;8.948;2023-06-04T12:49:08;24.40;99.90
20380;DHT22;10349;48.666;8.948;2023-06-04T12:51:34;24.20;99.90
20380;DHT22;10349;48.666;8.948;2023-06-04T12:54:01;24.00;99.90
20380;DHT22;10349;48.666;8.948;2023-06-04T12:56:28;23.70;99.90
20380;DHT22;10349;48.666;8.948;2023-06-04T12:58:57;23.70;99.90
20380;DHT22;10349;48.666;8.948;2023-06-04T13:01:22;23.80;99.90
20380;DHT22;10349;48.666;8.948;2023-06-04T13:03:48;24.00;99.90
20380;DHT22;10349;48.666;8.948;2023-06-04T13:06:15;24.10;99.90
20380;DHT22;10349;48.666;8.948;2023-06-04T13:08:41;24.30;99.90
20380;DHT22;10349;48.666;8.948;2023-06-04T13:11:06;24.30;99.90
20380;DHT22;10349;48.666;8.948;2023-06-04T13:13:33;24.30;99.90
20380;DHT22;10349;48.666;8.948;2023-06-04T13:15:59;24.10;99.90
20380;DHT22;10349;48.666;8.948;2023-06-04T13:18:24;24.00;99.90
20380;DHT22;10349;48.666;8.948;2023-06-04T13:20:50;23.80;99.90
20380;DHT22;10349;48.666;8.948;2023-06-04T13:23:16;23.70;99.90
20380;DHT22;10349;48.666;8.948;2023-06-04T13:25:42;23.80;99.90
20380;DHT22;10349;48.666;8.948;2023-06-04T13:28:08;23.90;99.90
20380;DHT22;10349;48.666;8.948;2023-06-04T13:30:38;24.00;99.90
20380;DHT22;10349;48.666;8.948;2023-06-04T13:33:04;24.00;99.90
20380;DHT22;10349;48.666;8.948;2023-06-04T13:35:30;24.10;99.90
20380;DHT22;10349;48.666;8.948;2023-06-04T13:37:56;24.20;99.90
20380;DHT22;10349;48.666;8.948;2023-06-04T13:40:22;24.30;99.90
20380;DHT22;10349;48.666;8.948;2023-06-04T13:42:48;24.40;99.90
20380;DHT22;10349;48.666;8.948;2023-06-04T13:45:14;24.40;99.90
20380;DHT22;10349;48.666;8.948;2023-06-04T13:47:42;24.30;99.90
20380;DHT22;10349;48.666;8.948;2023-06-04T13:50:08;24.20;99.90
20380;DHT22;10349;48.666;8.948;2023-06-04T13:52:34;24.10;99.90
20380;DHT22;10349;48.666;8.948;2023-06-04T13:54:59;24.10;99.90
20380;DHT22;10349;48.666;8.948;2023-06-04T13:57:27;24.20;99.90
20380;DHT22;10349;48.666;8.948;2023-06-04T13:59:53;24.20;99.90
20380;DHT22;10349;48.666;8.948;2023-06-04T14:02:19;24.10;99.90
20380;DHT22;10349;48.666;8.948;2023-06-04T14:04:44;24.10;99.90
20380;DHT22;10349;48.666;8.948;2023-06-04T14:07:10;24.20;99.90
20380;DHT22;10349;48.666;8.948;2023-06-04T14:09:36;24.30;99.90
20380;DHT22;10349;48.666;8.948;2023-06-04T14:12:03;24.40;99.90
20380;DHT22;10349;48.666;8.948;2023-06-04T14:14:29;24.50;99.90
20380;DHT22;10349;48.666;8.948;2023-06-04T14:17:05;24.60;99.90
20380;DHT22;10349;48.666;8.948;2023-06-04T14:19:32;24.40;99.90
20380;DHT22;10349;48.666;8.948;2023-06-04T14:21:58;24.20;99.90
20380;DHT22;10349;48.666;8.948;2023-06-04T14:24:24;23.90;99.90
20380;DHT22;10349;48.666;8.948;2023-06-04T14:26:50;23.80;99.90
20380;DHT22;10349;48.666;8.948;2023-06-04T14:29:18;23.80;99.90
20380;DHT22;10349;48.666;8.948;2023-06-04T14:31:45;24.10;99.90
20380;DHT22;10349;48.666;8.948;2023-06-04T14:34:11;24.20;99.90
20380;DHT22;10349;48.666;8.948;2023-06-04T14:36:37;24.40;99.90
20380;DHT22;10349;48.666;8.948;2023-06-04T14:39:03;24.50;99.90
20380;DHT22;10349;48.666;8.948;2023-06-04T14:41:28;24.50;99.90
20380;DHT22;10349;48.666;8.948;2023-06-04T14:43:54;24.30;99.90
20380;DHT22;10349;48.666;8.948;2023-06-04T14:46:20;24.20;99.90
20380;DHT22;10349;48.666;8.948;2023-06-04T14:48:46;24.20;99.90
20380;DHT22;10349;48.666;8.948;2023-06-04T14:51:12;24.00;99.90
20380;DHT22;10349;48.666;8.948;2023-06-04T14:53:38;24.10;99.90
20380;DHT22;10349;48.666;8.948;2023-06-04T14:56:05;23.90;99.90
20380;DHT22;10349;48.666;8.948;2023-06-04T14:58:31;23.90;99.90
20380;DHT22;10349;48.666;8.948;2023-06-04T15:00:56;23.80;99.90
20380;DHT22;10349;48.666;8.948;2023-06-04T15:03:24;23.80;99.90
20380;DHT22;10349;48.666;8.948;2023-06-04T15:05:51;24.00;99.90
20380;DHT22;10349;48.666;8.948;2023-06-04T15:08:17;23.80;99.90
20380;DHT22;10349;48.666;8.948;2023-06-04T15:10:42;23.50;99.90
20380;DHT22;10349;48.666;8.948;2023-06-04T15:13:08;23.50;99.90
20380;DHT22;10349;48.666;8.948;2023-06-04T15:15:35;23.50;99.90
20380;DHT22;10349;48.666;8.948;2023-06-04T15:18:00;23.70;99.90
20380;DHT22;10349;48.666;8.948;2023-06-04T15:20:26;23.80;99.90
20380;DHT22;10349;48.666;8.948;2023-06-04T15:22:54;23.90;99.90
20380;DHT22;10349;48.666;8.948;2023-06-04T15:25:20;24.00;99.90
20380;DHT22;10349;48.666;8.948;2023-06-04T15:27:46;23.80;99.90
20380;DHT22;10349;48.666;8.948;2023-06-04T15:30:14;23.90;99.90
20380;DHT22;10349;48.666;8.948;2023-06-04T15:32:40;23.90;99.90